• Join FlightAware (Why Join?)
  • Login
  • US Flag 
11:59AM EDT


 

Airport Tracker/Info


-or-


 

Live Flight TrackerFlight Track Log ✈ N50KC ✈ 27-Sep-2013 ✈ RJAA / NRT - KHPN

Flight Track Log - Related Links

Times and Time Zones

All times are in EDT time to prevent confusion due to time zone crossing. See the N50KC flight status page for this flight to view local times or setup timezone preferences in your user account.

Time Position Orientation Groundspeed Altitude Reporting Facility
EDT Latitude Longitude Course Direction KTS MPH feet Rate Location/Type
02:26AM 54.2276 155.7409 25° Northeast  Level Estimated
02:27AM 54.3393 155.8814 36° Northeast  Level Estimated
02:28AM 54.4508 156.0227 36° Northeast  Level Estimated
02:29AM 54.5622 156.1648 36° Northeast  Level Estimated
02:30AM 54.6734 156.3076 37° Northeast  Level Estimated
02:31AM 54.7845 156.4513 37° Northeast  Level Estimated
02:32AM 54.8954 156.5957 37° Northeast  Level Estimated
02:33AM 55.0061 156.7409 37° Northeast  Level Estimated
02:34AM 55.1166 156.8869 37° Northeast  Level Estimated
02:35AM 55.2270 157.0338 37° Northeast  Level Estimated
02:36AM 55.3371 157.1814 37° Northeast  Level Estimated
02:37AM 55.4471 157.3299 37° Northeast  Level Estimated
02:38AM 55.5569 157.4792 38° Northeast  Level Estimated
02:39AM 55.6666 157.6293 38° Northeast  Level Estimated
02:40AM 55.7760 157.7803 38° Northeast  Level Estimated
02:41AM 55.8853 157.9321 38° Northeast  Level Estimated
02:42AM 55.9944 158.0848 38° Northeast  Level Estimated
02:43AM 56.1033 158.2384 38° Northeast  Level Estimated
02:44AM 56.2120 158.3928 38° Northeast  Level Estimated
02:45AM 56.3205 158.5481 38° Northeast  Level Estimated
02:46AM 56.4288 158.7042 39° Northeast  Level Estimated
02:47AM 56.5369 158.8613 39° Northeast  Level Estimated
02:48AM 56.6448 159.0193 39° Northeast  Level Estimated
02:49AM 56.7525 159.1781 39° Northeast  Level Estimated
02:50AM 56.8600 159.3379 39° Northeast  Level Estimated
02:51AM 56.9673 159.4987 39° Northeast  Level Estimated
02:52AM 57.0744 159.6603 39° Northeast  Level Estimated
02:53AM 57.1813 159.8228 39° Northeast  Level Estimated
02:54AM 57.2880 159.9864 40° Northeast  Level Estimated
02:55AM 57.3945 160.1508 40° Northeast  Level Estimated
02:56AM 57.5007 160.3162 40° Northeast  Level Estimated
02:57AM 57.6067 160.4826 40° Northeast  Level Estimated
02:58AM 57.7125 160.6500 40° Northeast  Level Estimated
02:59AM 57.8181 160.8183 40° Northeast  Level Estimated
03:00AM 57.9235 160.9876 40° Northeast  Level Estimated
03:00AM 47.0000 170.0000 62° Northeast 514 592 41,000  Level Oakland Oceanic (ODAPS)
03:01AM 58.0286 161.1580 41° Northeast  Level Estimated
03:02AM 58.1335 161.3293 41° Northeast  Level Estimated
03:03AM 58.2382 161.5016 41° Northeast  Level Estimated
03:04AM 58.3427 161.6750 41° Northeast  Level Estimated
03:05AM 58.4469 161.8493 41° Northeast  Level Estimated
03:06AM 47.5264 171.4897 63° Northeast 514 592 41,000  Level FlightAware Transoceanic
03:07AM 47.5908 171.6780 63° Northeast 514 592 41,000  Level FlightAware Transoceanic
03:08AM 47.6550 171.8668 63° Northeast 514 592 41,000  Level FlightAware Transoceanic
03:09AM 47.7188 172.0560 63° Northeast 514 592 41,000  Level FlightAware Transoceanic
03:10AM 47.7823 172.2457 64° Northeast 514 592 41,000  Level FlightAware Transoceanic
03:11AM 47.8455 172.4358 64° Northeast 514 592 41,000  Level FlightAware Transoceanic
03:12AM 47.9083 172.6264 64° Northeast 514 592 41,000  Level FlightAware Transoceanic
03:13AM 47.9709 172.8175 64° Northeast 514 592 41,000  Level FlightAware Transoceanic
03:14AM 48.0331 173.0090 64° Northeast 514 592 41,000  Level FlightAware Transoceanic
03:15AM 48.0951 173.2010 64° Northeast 514 592 41,000  Level FlightAware Transoceanic
03:16AM 48.1567 173.3935 64° Northeast 514 592 41,000  Level FlightAware Transoceanic
03:17AM 48.2179 173.5864 65° Northeast 514 592 41,000  Level FlightAware Transoceanic
03:18AM 48.2789 173.7798 65° Northeast 514 592 41,000  Level FlightAware Transoceanic
03:19AM 48.3395 173.9736 65° Northeast 514 592 41,000  Level FlightAware Transoceanic
03:20AM 48.3998 174.1680 65° Northeast 514 592 41,000  Level FlightAware Transoceanic
03:21AM 48.4598 174.3627 65° Northeast 514 592 41,000  Level FlightAware Transoceanic
03:22AM 48.5194 174.5579 65° Northeast 514 592 41,000  Level FlightAware Transoceanic
03:23AM 48.5788 174.7536 65° Northeast 514 592 41,000  Level FlightAware Transoceanic
03:24AM 48.6377 174.9498 66° East 514 592 41,000  Level FlightAware Transoceanic
03:25AM 48.6964 175.1464 66° East 514 592 41,000  Level FlightAware Transoceanic
03:26AM 48.7547 175.3434 66° East 514 592 41,000  Level FlightAware Transoceanic
03:27AM 48.8127 175.5409 66° East 514 592 41,000  Level FlightAware Transoceanic
03:28AM 48.8703 175.7389 66° East 514 592 41,000  Level FlightAware Transoceanic
03:29AM 48.9276 175.9373 66° East 514 592 41,000  Level FlightAware Transoceanic
03:30AM 48.9846 176.1362 67° East 514 592 41,000  Level FlightAware Transoceanic
03:31AM 49.0412 176.3355 67° East 514 592 41,000  Level FlightAware Transoceanic
03:32AM 49.0975 176.5353 67° East 514 592 41,000  Level FlightAware Transoceanic
03:33AM 49.1534 176.7356 67° East 514 592 41,000  Level FlightAware Transoceanic
03:34AM 49.2090 176.9362 67° East 514 592 41,000  Level FlightAware Transoceanic
03:35AM 49.2642 177.1374 67° East 514 592 41,000  Level FlightAware Transoceanic
03:36AM 49.3191 177.3390 67° East 514 592 41,000  Level FlightAware Transoceanic
03:37AM 49.3736 177.5410 68° East 514 592 41,000  Level FlightAware Transoceanic
03:38AM 49.4278 177.7435 68° East 514 592 41,000  Level FlightAware Transoceanic
03:39AM 49.4816 177.9464 68° East 514 592 41,000  Level FlightAware Transoceanic
03:40AM 49.5351 178.1498 68° East 514 592 41,000  Level FlightAware Transoceanic
03:41AM 49.5882 178.3536 68° East 514 592 41,000  Level FlightAware Transoceanic
03:42AM 49.6409 178.5579 68° East 514 592 41,000  Level FlightAware Transoceanic
03:43AM 49.6933 178.7626 69° East 514 592 41,000  Level FlightAware Transoceanic
03:44AM 49.7453 178.9677 69° East 514 592 41,000  Level FlightAware Transoceanic
03:45AM 49.7970 179.1733 69° East 514 592 41,000  Level FlightAware Transoceanic
03:46AM 49.8483 179.3793 69° East 514 592 41,000  Level FlightAware Transoceanic
03:47AM 49.8992 179.5858 69° East 514 592 41,000  Level FlightAware Transoceanic
03:48AM 49.9498 179.7927 69° East 514 592 41,000  Level FlightAware Transoceanic
03:49AM 50.0000 -180.0000 69° East 514 592 41,000  Level FlightAware Transoceanic
03:50AM 50.0535 -179.7875 69° East 514 592 41,000  Level FlightAware Transoceanic
03:51AM 50.1066 -179.5746 69° East 514 592 41,000  Level FlightAware Transoceanic
03:51AM 50.0000 180.0000 69° East 541 623 41,000  Level Anchorage Center
03:52AM 50.1593 -179.3612 69° East 514 592 41,000  Level FlightAware Transoceanic
03:53AM 50.2116 -179.1473 69° East 514 592 41,000  Level FlightAware Transoceanic
03:54AM 50.2635 -178.9329 69° East 514 592 41,000  Level FlightAware Transoceanic
03:55AM 50.3150 -178.7181 70° East 514 592 41,000  Level FlightAware Transoceanic
03:56AM 50.3662 -178.5028 70° East 514 592 41,000  Level FlightAware Transoceanic
03:57AM 50.4261 -178.2478 70° East 541 623 41,000  Level FlightAware Transoceanic
03:58AM 50.4775 -178.0266 70° East 541 623 41,000  Level FlightAware Transoceanic
03:59AM 50.5284 -177.8049 70° East 541 623 41,000  Level FlightAware Transoceanic
04:00AM 50.5790 -177.5828 70° East 541 623 41,000  Level FlightAware Transoceanic
04:01AM 50.6291 -177.3601 71° East 541 623 41,000  Level FlightAware Transoceanic
04:02AM 50.6788 -177.1370 71° East 541 623 41,000  Level FlightAware Transoceanic
04:03AM 50.7281 -176.9134 71° East 541 623 41,000  Level FlightAware Transoceanic
04:04AM 50.7769 -176.6894 71° East 541 623 41,000  Level FlightAware Transoceanic
04:05AM 50.8254 -176.4648 71° East 541 623 41,000  Level FlightAware Transoceanic
04:06AM 50.8733 -176.2399 71° East 541 623 41,000  Level FlightAware Transoceanic
04:07AM 50.9209 -176.0144 72° East 541 623 41,000  Level FlightAware Transoceanic
04:08AM 50.9680 -175.7885 72° East 541 623 41,000  Level FlightAware Transoceanic
04:09AM 51.0147 -175.5621 72° East 541 623 41,000  Level FlightAware Transoceanic
04:10AM 51.0609 -175.3353 72° East 541 623 41,000  Level FlightAware Transoceanic
04:11AM 51.1067 -175.1080 72° East 541 623 41,000  Level FlightAware Transoceanic
04:12AM 51.1521 -174.8803 72° East 541 623 41,000  Level FlightAware Transoceanic
04:13AM 51.1970 -174.6522 73° East 541 623 41,000  Level FlightAware Transoceanic
04:14AM 51.2415 -174.4236 73° East 541 623 41,000  Level FlightAware Transoceanic
04:15AM 51.2855 -174.1945 73° East 541 623 41,000  Level FlightAware Transoceanic
04:16AM 51.3291 -173.9650 73° East 541 623 41,000  Level FlightAware Transoceanic
04:17AM 51.3722 -173.7351 73° East 541 623 41,000  Level FlightAware Transoceanic
04:18AM 51.4149 -173.5048 74° East 541 623 41,000  Level FlightAware Transoceanic
04:19AM 51.4571 -173.2740 74° East 541 623 41,000  Level FlightAware Transoceanic
04:20AM 51.4989 -173.0428 74° East 541 623 41,000  Level FlightAware Transoceanic
04:21AM 51.5402 -172.8112 74° East 541 623 41,000  Level FlightAware Transoceanic
04:22AM 51.5811 -172.5791 74° East 541 623 41,000  Level FlightAware Transoceanic
04:23AM 51.6215 -172.3467 74° East 541 623 41,000  Level FlightAware Transoceanic
04:24AM 51.6614 -172.1138 75° East 541 623 41,000  Level FlightAware Transoceanic
04:25AM 51.7009 -171.8805 75° East 541 623 41,000  Level FlightAware Transoceanic
04:26AM 51.7399 -171.6468 75° East 541 623 41,000  Level FlightAware Transoceanic
04:27AM 51.7785 -171.4127 75° East 541 623 41,000  Level FlightAware Transoceanic
04:28AM 51.8166 -171.1783 75° East 541 623 41,000  Level FlightAware Transoceanic
04:29AM 51.8542 -170.9434 76° East 541 623 41,000  Level FlightAware Transoceanic
04:30AM 51.8914 -170.7081 76° East 541 623 41,000  Level FlightAware Transoceanic
04:31AM 51.9281 -170.4725 76° East 541 623 41,000  Level FlightAware Transoceanic
04:32AM 51.9643 -170.2364 76° East 541 623 41,000  Level FlightAware Transoceanic
04:33AM 52.0000 -170.0000 77° East 541 623 41,000  Level FlightAware Transoceanic
04:34AM 52.0351 -169.7562 77° East 541 623 41,000  Level FlightAware Transoceanic
04:35AM 52.0698 -169.5120 77° East 541 623 41,000  Level FlightAware Transoceanic
04:36AM 52.1039 -169.2675 77° East 541 623 41,000  Level FlightAware Transoceanic
04:37AM 52.1375 -169.0225 77° East 541 623 41,000  Level FlightAware Transoceanic
04:37AM 52.0000 -170.0000 67° East 507 583 41,000  Level Anchorage Center
04:38AM 52.1706 -168.7772 78° East 541 623 41,000  Level FlightAware Transoceanic
04:39AM 52.2032 -168.5316 78° East 541 623 41,000  Level FlightAware Transoceanic
04:40AM 52.2353 -168.2856 78° East 541 623 41,000  Level FlightAware Transoceanic
04:41AM 52.2669 -168.0392 78° East 541 623 41,000  Level FlightAware Transoceanic
04:42AM 52.2980 -167.7925 78° East 541 623 41,000  Level FlightAware Transoceanic
04:43AM 52.4788 -168.0905 68° East 507 583 41,000  Level FlightAware Transoceanic
04:44AM 52.5301 -167.8758 69° East 507 583 41,000  Level FlightAware Transoceanic
04:45AM 52.5810 -167.6606 69° East 507 583 41,000  Level FlightAware Transoceanic
04:46AM 52.6315 -167.4449 69° East 507 583 41,000  Level FlightAware Transoceanic
04:47AM 52.6816 -167.2287 69° East 507 583 41,000  Level FlightAware Transoceanic
04:48AM 52.7313 -167.0120 69° East 507 583 41,000  Level FlightAware Transoceanic
04:49AM 52.7806 -166.7948 70° East 507 583 41,000  Level FlightAware Transoceanic
04:50AM 52.8296 -166.5771 70° East 507 583 41,000  Level FlightAware Transoceanic
04:51AM 52.8781 -166.3590 70° East 507 583 41,000  Level FlightAware Transoceanic
04:52AM 52.9262 -166.1403 70° East 507 583 41,000  Level FlightAware Transoceanic
04:53AM 52.9739 -165.9212 70° East 507 583 41,000 2,340 Level FlightAware Transoceanic
04:53AM 53.0000 -165.7333 71° East 560 644 45,000  Climbing Anchorage Center
04:54AM 53.0212 -165.7016 70° East 507 583 41,000  Descending FlightAware Transoceanic
04:54AM 53.0500 -165.4833 72° East 560 644 45,000  Climbing Anchorage Center
04:55AM 53.0681 -165.4815 71° East 507 583 41,000  Descending FlightAware Transoceanic
04:55AM 53.1167 -165.2500 64° Northeast 560 644 45,000  Climbing Anchorage Center
04:56AM 53.1147 -165.2609 71° East 507 583 41,000  Descending FlightAware Transoceanic
04:56AM 53.1667 -165.0000 71° East 550 633 45,000  Climbing Anchorage Center
04:57AM 53.1608 -165.0399 71° East 507 583 41,000  Descending FlightAware Transoceanic
04:57AM 53.2167 -164.7500 71° East 550 633 45,000  Climbing Anchorage Center
04:58AM 53.2064 -164.8183 71° East 507 583 41,000  Descending FlightAware Transoceanic
04:58AM 53.2500 -164.5667 73° East 550 633 45,000  Climbing Anchorage Center
04:59AM 53.2517 -164.5963 71° East 507 583 41,000  Descending FlightAware Transoceanic
04:59AM 53.3000 -164.3167 71° East 560 644 45,000 2,460 Climbing Anchorage Center
05:00AM 53.3500 -164.0667 71° East 550 633 45,000  Level Anchorage Center
05:01AM 53.4000 -163.8167 71° East 550 633 45,000  Level Anchorage Center
05:02AM 53.4500 -163.5667 71° East 560 644 45,000  Level Anchorage Center
05:04AM 53.5081 -163.2621 72° East  Level FlightAware Approximate
05:07AM 53.6500 -162.4500 73° East 530 610 45,000  Level Anchorage Center
05:08AM 53.7000 -162.2000 71° East 540 621 45,000  Level Anchorage Center
05:10AM 53.7667 -161.7667 75° East 540 621 45,000  Level Anchorage Center
05:11AM 53.7899 -161.7081 72° East  Level FlightAware Approximate
05:11AM 53.8167 -161.4667 74° East 530 610 45,000  Level Anchorage Center
05:12AM 53.8291 -161.4847 73° East  Level FlightAware Approximate
05:12AM 53.8667 -161.2167 71° East 530 610 45,000  Level Anchorage Center
05:13AM 53.9000 -160.9833 76° East 540 621 45,000  Level Anchorage Center
05:14AM 53.9500 -160.7333 71° East 540 621 45,000  Level Anchorage Center
05:15AM 53.9833 -160.4833 77° East 530 610 45,000  Level Anchorage Center
05:16AM 54.0167 -160.2500 76° East 530 610 45,000  Level Anchorage Center
05:17AM 54.0667 -160.0000 71° East 530 610 45,000  Level Anchorage Center
05:18AM 54.1000 -159.7500 77° East 550 633 45,000  Level Anchorage Center
05:19AM 54.1500 -159.5000 71° East 540 621 45,000  Level Anchorage Center
05:20AM 54.1833 -159.2500 77° East 540 621 45,000  Level Anchorage Center
05:21AM 54.2167 -159.0000 77° East 520 598 45,000  Level Anchorage Center
05:22AM 54.2500 -158.7500 77° East 530 610 45,000  Level Anchorage Center
05:23AM 54.3000 -158.5000 71° East 530 610 45,000  Level Anchorage Center
05:24AM 54.3167 -158.2667 83° East 520 598 45,000  Level Anchorage Center
05:25AM 54.3500 -158.0167 77° East 530 610 45,000  Level Anchorage Center
05:27AM 54.4148 -157.6606 73° East  Level FlightAware Approximate
05:34AM 54.5877 -156.2644 77° East  Level FlightAware Approximate
05:35AM 54.6123 -156.0642 78° East  Level FlightAware Approximate
05:36AM 54.6365 -155.8639 78° East  Level FlightAware Approximate
05:37AM 54.6643 -155.6306 78° East  Level FlightAware Approximate
05:38AM 54.6916 -155.3971 78° East  Level FlightAware Approximate
05:39AM 54.7185 -155.1632 79° East  Level FlightAware Approximate
05:40AM 54.7450 -154.9291 79° East  Level FlightAware Approximate
05:41AM 54.7710 -154.6946 79° East  Level FlightAware Approximate
05:42AM 54.7965 -154.4598 79° East  Level FlightAware Approximate
05:43AM 54.8216 -154.2248 79° East  Level FlightAware Approximate
05:44AM 54.8462 -153.9894 80° East  Level FlightAware Approximate
05:45AM 54.8704 -153.7538 80° East  Level FlightAware Approximate
05:46AM 54.8941 -153.5179 80° East  Level FlightAware Approximate
05:47AM 54.9174 -153.2817 80° East  Level FlightAware Approximate
05:48AM 54.9402 -153.0452 80° East  Level FlightAware Approximate
05:49AM 54.9625 -152.8085 81° East  Level FlightAware Approximate
05:50AM 54.9844 -152.5715 81° East  Level FlightAware Approximate
05:51AM 55.0058 -152.3343 81° East  Level FlightAware Approximate
05:52AM 55.0268 -152.0968 81° East  Level FlightAware Approximate
05:53AM 55.0472 -151.8591 81° East  Level FlightAware Approximate
05:54AM 55.0673 -151.6211 82° East  Level FlightAware Approximate
05:55AM 55.0868 -151.3828 82° East  Level FlightAware Approximate
05:56AM 55.1059 -151.1444 82° East  Level FlightAware Approximate
05:57AM 55.1246 -150.9057 82° East  Level FlightAware Approximate
05:58AM 55.1427 -150.6668 82° East  Level FlightAware Approximate
05:59AM 55.1604 -150.4277 83° East  Level FlightAware Approximate
06:00AM 55.1777 -150.1884 83° East  Level FlightAware Approximate
06:01AM 55.1944 -149.9489 83° East  Level FlightAware Approximate
06:02AM 55.2107 -149.7092 83° East  Level FlightAware Approximate
06:03AM 55.2266 -149.4693 83° East  Level FlightAware Approximate
06:04AM 55.2419 -149.2292 84° East  Level FlightAware Approximate
06:05AM 55.2568 -148.9889 84° East  Level FlightAware Approximate
06:05AM 55.3167 -147.9167 85° East 500 575 45,000  Level Anchorage Center
06:06AM 55.2712 -148.7484 84° East  Level FlightAware Approximate
06:06AM 55.3333 -147.6667 83° East 500 575 45,000  Level Anchorage Center
06:07AM 55.2851 -148.5078 84° East  Level FlightAware Approximate
06:07AM 55.3333 -147.4167 90° East 510 587 45,000  Level Anchorage Center
06:08AM 55.2986 -148.2670 84° East  Level FlightAware Approximate
06:08AM 55.3500 -147.1667 83° East 520 598 45,000  Level Anchorage Center
06:09AM 55.3116 -148.0260 84° East  Level FlightAware Approximate
06:09AM 55.3667 -146.9000 84° East 510 587 45,000  Level Anchorage Center
06:10AM 55.3241 -147.7849 85° East  Level FlightAware Approximate
06:10AM 55.3667 -146.6500 90° East 520 598 45,000  Level Anchorage Center
06:11AM 55.3833 -146.4167 83° East 500 575 45,000  Level Anchorage Center
06:12AM 55.3833 -146.1667 90° East 500 575 45,000  Level Anchorage Center
06:13AM 55.4000 -145.9000 84° East 510 587 45,000  Level Anchorage Center
06:14AM 55.4000 -145.6500 90° East 510 587 45,000  Level Anchorage Center
06:15AM 55.4167 -145.4000 83° East 510 587 45,000  Level Anchorage Center
06:16AM 55.4167 -145.1500 90° East 510 587 45,000  Level Anchorage Center
06:17AM 55.4333 -144.9000 83° East 510 587 45,000  Level Anchorage Center
06:18AM 55.4333 -144.6333 90° East 520 598 45,000  Level Anchorage Center
06:19AM 55.4333 -144.3833 90° East 520 598 45,000  Level Anchorage Center
06:20AM 55.4500 -144.1333 83° East 510 587 45,000  Level Anchorage Center
06:21AM 55.4500 -143.8833 90° East 510 587 45,000  Level Anchorage Center
06:22AM 55.4500 -143.6167 90° East 510 587 45,000  Level Anchorage Center
06:24AM 55.4557 -143.2491 88° East  Level FlightAware Approximate
06:27AM 55.4667 -142.3167 90° East 500 575 45,000  Level Anchorage Center
06:28AM 55.4833 -142.0833 83° East 500 575 45,000  Level Anchorage Center
06:29AM 55.4833 -141.8333 90° East 490 564 45,000  Level Anchorage Center
06:30AM 55.4833 -141.5833 90° East 500 575 45,000  Level Anchorage Center
06:31AM 55.4676 -141.5515 89° East  Level FlightAware Approximate
06:31AM 55.4667 -141.3333 97° East 510 587 45,000  Level Anchorage Center
06:32AM 55.4673 -141.3089 90° East  Level FlightAware Approximate
06:32AM 55.4667 -141.0833 90° East 500 575 45,000  Level Anchorage Center
06:33AM 55.4667 -140.8500 90° East 500 575 45,000  Level Anchorage Center
06:34AM 55.4667 -140.6000 90° East 500 575 45,000  Level Anchorage Center
06:35AM 55.4667 -140.3500 90° East 510 587 45,000  Level Anchorage Center
06:36AM 55.4667 -140.1000 90° East 510 587 45,000  Level Anchorage Center
06:37AM 55.4500 -139.8500 97° East 500 575 45,000  Level Anchorage Center
06:38AM 55.4500 -139.6000 90° East 500 575 45,000  Level Anchorage Center
06:39AM 55.4500 -139.3500 90° East 500 575 45,000  Level Anchorage Center
06:40AM 55.4500 -139.1167 90° East 510 587 45,000  Level Anchorage Center
06:41AM 55.4333 -138.8667 97° East 520 598 45,000  Level Anchorage Center
06:42AM 55.4333 -138.6167 90° East 500 575 45,000  Level Anchorage Center
06:43AM 55.4333 -138.3667 90° East 510 587 45,000  Level Anchorage Center
06:44AM 55.4167 -138.1167 97° East 500 575 45,000  Level Anchorage Center
06:45AM 55.4167 -137.8833 90° East 500 575 45,000  Level Anchorage Center
06:46AM 55.4000 -137.6333 97° East 500 575 45,000  Level Anchorage Center
06:47AM 55.4000 -137.3833 90° East 500 575 45,000  Level Anchorage Center
06:48AM 55.3833 -137.1500 97° East 500 575 45,000  Level Anchorage Center
06:49AM 55.3833 -136.9000 90° East 500 575 45,000  Level Anchorage Center
06:50AM 55.3667 -136.6667 97° East 500 575 45,000  Level Anchorage Center
06:51AM 55.3500 -136.4167 97° East 510 587 45,000  Level Anchorage Center
06:52AM 55.3500 -136.1833 90° East 500 575 45,000  Level Anchorage Center
06:53AM 55.3333 -135.8833 95° East 500 575 45,000  Level Anchorage Center
06:54AM 55.3167 -135.6333 97° East 500 575 45,000  Level Anchorage Center
06:55AM 55.3167 -135.4000 90° East 500 575 45,000  Level Anchorage Center
06:56AM 55.3000 -135.1500 97° East 510 587 45,000  Level Anchorage Center
06:57AM 55.2833 -134.9000 97° East 510 587 45,000  Level Anchorage Center
06:58AM 55.2667 -134.6667 97° East 500 575 45,000  Level Anchorage Center
06:59AM 55.2500 -134.4167 97° East 500 575 45,000  Level Anchorage Center
07:00AM 55.2333 -134.1667 97° East 510 587 45,000  Level Anchorage Center
07:01AM 55.2167 -133.9333 97° East 500 575 45,000  Level Anchorage Center
07:02AM 55.2000 -133.7000 97° East 500 575 45,000  Level Anchorage Center
07:03AM 55.1833 -133.4500 97° East 490 564 45,000  Level Anchorage Center
07:04AM 55.1500 -133.2000 103° East 490 564 45,000  Level Anchorage Center
07:05AM 55.1333 -132.9833 98° East 490 564 45,000  Level Anchorage Center
07:06AM 55.1167 -132.7167 96° East 500 575 45,000  Level Anchorage Center
07:07AM 55.1000 -132.5000 98° East 500 575 45,000 120 Level Anchorage Center
07:08AM 55.0833 -132.2500 97° East 500 575 45,300 240 Climbing Anchorage Center
07:09AM 55.0500 -132.0167 104° East 500 575 45,500 300 Climbing Anchorage Center
07:10AM 55.0333 -131.7667 97° East 500 575 45,900 240 Climbing Anchorage Center
07:11AM 55.0167 -131.5333 97° East 500 575 46,100 240 Climbing Anchorage Center
07:12AM 54.9833 -131.2833 103° East 500 575 46,400 240 Climbing Anchorage Center
07:13AM 54.9667 -131.0667 98° East 500 575 46,700 240 Climbing Anchorage Center
07:14AM 54.9333 -130.8167 103° East 500 575 47,000 120 Climbing Anchorage Center
07:15AM 54.9167 -130.5833 97° East 500 575 47,000  Level Anchorage Center
07:17AM 54.9000 -130.3333 97° East 490 564 47,000  Level Vancouver Center
07:18AM 54.8500 -130.0833 109° East 490 564 47,000  Level Vancouver Center
07:19AM 54.8333 -129.8833 98° East 480 552 47,000  Level Vancouver Center
07:20AM 54.8167 -129.6500 97° East 490 564 47,000  Level Vancouver Center
07:21AM 54.7833 -129.4167 104° East 490 564 47,000  Level Vancouver Center
07:22AM 54.7667 -129.1833 97° East 490 564 47,000  Level Vancouver Center
07:23AM 54.7333 -128.9667 105° East 480 552 47,000  Level Vancouver Center
07:24AM 54.7167 -128.7000 96° East 490 564 47,000  Level Vancouver Center
07:25AM 54.6833 -128.5000 106° East 490 564 47,000  Level Vancouver Center
07:26AM 54.6667 -128.3000 98° East 470 541 47,000  Level Vancouver Center
07:27AM 54.6167 -128.0667 110° East 480 552 47,000  Level Vancouver Center
07:28AM 54.6000 -127.8333 97° East 490 564 47,000  Level Vancouver Center
07:29AM 54.5667 -127.6000 104° East 490 564 47,000  Level Vancouver Center
07:30AM 54.5500 -127.3667 97° East 500 575 47,000  Level Vancouver Center
07:31AM 54.5000 -127.1333 110° East 490 564 47,000  Level Vancouver Center
07:32AM 54.4667 -126.9333 106° East 480 552 47,000  Level Vancouver Center
07:33AM 54.4500 -126.7000 97° East 480 552 47,000  Level Vancouver Center
07:34AM 54.4167 -126.4667 104° East 480 552 47,000  Level Vancouver Center
07:35AM 54.3833 -126.2667 106° East 480 552 47,000  Level Vancouver Center
07:36AM 54.3833 -126.0000 90° East 480 552 47,000  Level Vancouver Center
07:37AM 54.3500 -125.8000 106° East 480 552 47,000  Level Vancouver Center
07:38AM 54.3167 -125.5667 104° East 480 552 47,000  Level Vancouver Center
07:39AM 54.2833 -125.3333 104° East 480 552 47,000  Level Vancouver Center
07:40AM 54.2500 -125.1167 105° East 480 552 47,000  Level Vancouver Center
07:41AM 54.2167 -124.8833 104° East 490 564 47,000  Level Vancouver Center
07:42AM 54.2000 -124.6833 98° East 490 564 47,000  Level Vancouver Center
07:43AM 54.1667 -124.4167 102° East 490 564 47,000  Level Vancouver Center
07:44AM 54.1500 -124.2167 98° East 490 564 47,000  Level Vancouver Center
07:45AM 54.1167 -123.9667 103° East 480 552 47,000  Level Vancouver Center
07:46AM 54.0833 -123.7667 106° East 490 564 47,000  Level Vancouver Center
07:47AM 54.0500 -123.5333 104° East 480 552 47,000  Level Vancouver Center
07:48AM 54.0167 -123.3167 105° East 480 552 47,000  Level Vancouver Center
07:49AM 53.9833 -123.1167 106° East 470 541 47,000  Level Vancouver Center
07:50AM 53.9667 -122.8833 97° East 470 541 47,000  Level Vancouver Center
07:51AM 53.9167 -122.6667 111° Southeast 480 552 47,000  Level Vancouver Center
07:52AM 53.8833 -122.4667 106° East 480 552 47,000  Level Vancouver Center
07:53AM 53.8667 -122.2167 96° East 480 552 47,000  Level Vancouver Center
07:54AM 53.8667 -121.9833 90° East 480 552 47,000  Level Vancouver Center
07:55AM 53.8500 -121.7667 97° East 490 564 47,000  Level Vancouver Center
07:56AM 53.8333 -121.5333 97° East 490 564 47,000  Level Vancouver Center
07:57AM 53.8167 -121.3167 97° East 490 564 47,000  Level Vancouver Center
07:58AM 53.8167 -121.0833 90° East 490 564 47,000  Level Vancouver Center
07:59AM 53.8167 -120.8500 90° East 480 552 47,000  Level Vancouver Center
08:00AM 53.7833 -120.6333 105° East 480 552 47,000  Level Vancouver Center
08:01AM 53.7833 -120.4000 90° East 480 552 47,000  Level Vancouver Center
08:02AM 53.7500 -120.1833 105° East 480 552 47,000  Level Vancouver Center
08:03AM 53.7500 -119.9500 90° East 470 541 47,000  Level Vancouver Center
08:04AM 53.7667 -119.7333 82° East 480 552 47,000  Level Vancouver Center
08:05AM 53.7500 -119.5000 97° East 480 552 47,000  Level Vancouver Center
08:06AM 53.7500 -119.2833 90° East 480 552 47,000  Level Vancouver Center
08:07AM 53.7500 -119.0500 90° East 480 552 47,000  Level Vancouver Center
08:08AM 53.7500 -118.8333 90° East 480 552 47,000  Level Vancouver Center
08:09AM 53.7500 -118.6000 90° East 480 552 47,000  Level Vancouver Center
08:10AM 53.7333 -118.3833 97° East 480 552 47,000  Level Vancouver Center
08:11AM 53.7500 -118.1500 83° East 480 552 47,000  Level Vancouver Center
08:12AM 53.7333 -117.9167 97° East 480 552 47,000  Level Vancouver Center
08:13AM 53.7333 -117.7000 90° East 480 552 47,000  Level Vancouver Center
08:14AM 53.7333 -117.4667 90° East 480 552 47,000  Level Vancouver Center
08:15AM 53.7167 -117.2500 97° East 490 564 47,000  Level Vancouver Center
08:16AM 53.7167 -117.0167 90° East 480 552 47,000  Level Vancouver Center
08:17AM 53.7167 -116.8000 90° East 480 552 47,000  Level Vancouver Center
08:18AM 53.7167 -116.5333 90° East 480 552 47,000  Level Vancouver Center
08:19AM 53.7000 -116.3167 97° East 490 564 47,000  Level Vancouver Center
08:20AM 53.6667 -116.1333 107° East 480 552 47,000  Level Edmonton Center
08:21AM 53.6667 -115.9000 90° East 480 552 47,000  Level Edmonton Center
08:22AM 53.6667 -115.7000 90° East 470 541 47,000  Level Edmonton Center
08:23AM 53.6500 -115.4667 97° East 470 541 47,000  Level Edmonton Center
08:24AM 53.6333 -115.2667 98° East 470 541 47,000  Level Edmonton Center
08:25AM 53.6333 -115.0333 90° East 470 541 47,000  Level Edmonton Center
08:26AM 53.6167 -114.8000 97° East 470 541 47,000  Level Edmonton Center
08:27AM 53.6000 -114.6000 98° East 470 541 47,000  Level Edmonton Center
08:28AM 53.6167 -114.3667 83° East 470 541 47,000  Level Edmonton Center
08:29AM 53.6000 -114.1333 97° East 470 541 47,000  Level Edmonton Center
08:30AM 53.5833 -113.9000 97° East 470 541 47,000  Level Edmonton Center
08:31AM 53.5833 -113.7000 90° East 470 541 47,000  Level Edmonton Center
08:32AM 53.5667 -113.4667 97° East 470 541 47,000  Level Edmonton Center
08:33AM 53.5500 -113.2333 97° East 480 552 47,000  Level Edmonton Center
08:34AM 53.5333 -113.0333 98° East 480 552 47,000  Level Edmonton Center
08:35AM 53.5167 -112.8000 97° East 480 552 47,000  Level Edmonton Center
08:36AM 53.5000 -112.5667 97° East 480 552 47,000  Level Edmonton Center
08:37AM 53.5000 -112.3333 90° East 480 552 47,000  Level Edmonton Center
08:38AM 53.4833 -112.1167 97° East 480 552 47,000  Level Edmonton Center
08:39AM 53.4667 -111.8833 97° East 480 552 47,000  Level Edmonton Center
08:40AM 53.4500 -111.6500 97° East 480 552 47,000  Level Edmonton Center
08:41AM 53.4333 -111.4500 98° East 480 552 47,000  Level Edmonton Center
08:42AM 53.4167 -111.2167 97° East 480 552 47,000  Level Edmonton Center
08:43AM 53.4000 -110.9833 97° East 480 552 47,000  Level Edmonton Center
08:44AM 53.3833 -110.7500 97° East 480 552 47,000  Level Edmonton Center
08:45AM 53.3667 -110.5167 97° East 480 552 47,000  Level Edmonton Center
08:46AM 53.3500 -110.3167 98° East 480 552 47,000  Level Edmonton Center
08:47AM 53.3333 -110.0500 96° East 480 552 47,000  Level Winnipeg Center
08:48AM 53.3000 -109.8500 106° East 480 552 47,000  Level Winnipeg Center
08:49AM 53.3000 -109.6167 90° East 490 564 47,000  Level Winnipeg Center
08:50AM 53.2667 -109.3833 103° East 490 564 47,000  Level Winnipeg Center
08:51AM 53.2667 -109.1500 90° East 490 564 47,000  Level Winnipeg Center
08:52AM 53.2333 -108.9500 105° East 480 552 47,000  Level Winnipeg Center
08:53AM 53.2167 -108.7167 97° East 480 552 47,000  Level Winnipeg Center
08:54AM 53.1833 -108.5167 105° East 480 552 47,000  Level Winnipeg Center
08:55AM 53.1833 -108.2833 90° East 490 564 47,000  Level Winnipeg Center
08:56AM 53.1500 -108.0500 103° East 490 564 47,000  Level Winnipeg Center
08:57AM 53.1333 -107.8167 97° East 490 564 47,000  Level Winnipeg Center
08:58AM 53.1000 -107.6167 105° East 480 552 47,000  Level Winnipeg Center
08:59AM 53.0833 -107.3833 97° East 480 552 47,000  Level Winnipeg Center
09:00AM 53.0667 -107.1833 98° East 480 552 47,000  Level Winnipeg Center
09:01AM 53.0500 -106.9500 97° East 480 552 47,000  Level Winnipeg Center
09:02AM 53.0167 -106.7167 103° East 480 552 47,000  Level Winnipeg Center
09:03AM 52.9833 -106.5167 105° East 480 552 47,000  Level Winnipeg Center
09:04AM 52.9667 -106.3000 97° East 480 552 47,000  Level Winnipeg Center
09:05AM 52.9333 -106.0667 103° East 480 552 47,000  Level Winnipeg Center
09:06AM 52.9167 -105.8667 98° East 480 552 47,000  Level Winnipeg Center
09:07AM 52.8833 -105.6333 103° East 490 564 47,000  Level Winnipeg Center
09:08AM 52.8667 -105.4000 97° East 490 564 47,000  Level Winnipeg Center
09:09AM 52.8333 -105.2000 105° East 490 564 47,000  Level Winnipeg Center
09:10AM 52.8000 -104.9833 104° East 490 564 47,000  Level Winnipeg Center
09:11AM 52.7667 -104.7500 103° East 490 564 47,000  Level Winnipeg Center
09:12AM 52.7333 -104.5167 103° East 490 564 47,000  Level Winnipeg Center
09:13AM 52.7167 -104.3167 98° East 490 564 47,000  Level Winnipeg Center
09:14AM 52.6833 -104.1000 104° East 490 564 47,000  Level Winnipeg Center
09:15AM 52.6500 -103.8667 103° East 480 552 47,000  Level Winnipeg Center
09:16AM 52.6333 -103.6667 98° East 480 552 47,000  Level Winnipeg Center
09:17AM 52.6000 -103.4500 104° East 480 552 47,000  Level Winnipeg Center
09:18AM 52.5667 -103.2500 105° East 490 564 47,000  Level Winnipeg Center
09:19AM 52.5333 -103.0500 105° East 480 552 47,000  Level Edmonton Center
09:20AM 52.5000 -102.8500 105° East 480 552 47,000  Level Edmonton Center
09:21AM 52.4667 -102.6000 102° East 490 564 47,000  Level Winnipeg Center
09:22AM 52.4333 -102.3833 104° East 480 552 47,000  Level Winnipeg Center
09:23AM 52.4167 -102.1500 97° East 480 552 47,000  Level Winnipeg Center
09:24AM 52.3667 -101.9500 112° Southeast 490 564 47,000  Level Winnipeg Center
09:25AM 52.3333 -101.7333 104° East 490 564 47,000  Level Winnipeg Center
09:26AM 52.3000 -101.5167 104° East 490 564 47,000  Level Winnipeg Center
09:27AM 52.2667 -101.2833 103° East 500 575 47,000  Level Winnipeg Center
09:28AM 52.2167 -101.0667 111° Southeast 500 575 47,000  Level Winnipeg Center
09:29AM 52.2000 -100.8500 97° East 510 587 47,000  Level Winnipeg Center
09:30AM 52.1500 -100.6167 109° East 500 575 47,000  Level Winnipeg Center
09:31AM 52.1167 -100.4333 106° East 500 575 47,000  Level Winnipeg Center
09:32AM 52.0833 -100.1833 102° East 510 587 47,000  Level Winnipeg Center
09:33AM 52.0333 -99.9667 110° East 500 575 47,000  Level Winnipeg Center
09:34AM 52.0000 -99.7333 103° East 500 575 47,000  Level Winnipeg Center
09:35AM 51.9667 -99.5167 104° East 500 575 47,000  Level Winnipeg Center
09:36AM 51.9167 -99.3000 110° East 500 575 47,000  Level Winnipeg Center
09:37AM 51.8833 -99.0833 104° East 500 575 47,000  Level Winnipeg Center
09:38AM 51.8333 -98.8833 112° Southeast 510 587 47,000  Level Winnipeg Center
09:39AM 51.8167 -98.6500 97° East 510 587 47,000  Level Winnipeg Center
09:40AM 51.7667 -98.4500 112° Southeast 510 587 47,000  Level Winnipeg Center
09:41AM 51.7167 -98.2000 108° East 500 575 47,000  Level Winnipeg Center
09:42AM 51.6833 -98.0167 106° East 500 575 47,000  Level Winnipeg Center
09:43AM 51.6333 -97.7667 108° East 500 575 47,000  Level Winnipeg Center
09:44AM 51.6000 -97.5833 106° East 500 575 47,000  Level Winnipeg Center
09:45AM 51.5500 -97.3667 110° East 490 564 47,000  Level Winnipeg Center
09:46AM 51.5000 -97.1500 110° East 500 575 47,000  Level Winnipeg Center
09:47AM 51.4667 -96.9333 104° East 500 575 47,000  Level Winnipeg Center
09:48AM 51.4167 -96.7167 110° East 500 575 47,000  Level Winnipeg Center
09:49AM 51.3833 -96.5333 106° East 480 552 47,000  Level Winnipeg Center
09:50AM 51.3333 -96.3167 110° East 480 552 47,000  Level Winnipeg Center
09:51AM 51.3000 -96.1167 105° East 490 564 47,000  Level Winnipeg Center
09:52AM 51.2500 -95.9167 112° Southeast 490 564 47,000  Level Winnipeg Center
09:53AM 51.2000 -95.7167 112° Southeast 490 564 47,000  Level Winnipeg Center
09:54AM 51.1500 -95.5000 110° East 490 564 47,000  Level Winnipeg Center
09:55AM 51.1000 -95.2833 110° East 500 575 47,000  Level Winnipeg Center
09:56AM 51.0667 -95.0667 104° East 500 575 47,000  Level Winnipeg Center
09:57AM 51.0167 -94.8667 112° Southeast 510 587 47,000  Level Winnipeg Center
09:58AM 50.9833 -94.6833 106° East 510 587 47,000  Level Winnipeg Center
09:59AM 50.9167 -94.4500 114° Southeast 500 575 47,000  Level Winnipeg Center
10:00AM 50.8667 -94.2333 110° East 510 587 47,000  Level Winnipeg Center
10:01AM 50.8333 -94.0167 104° East 510 587 47,000  Level Winnipeg Center
10:02AM 50.7667 -93.8167 118° Southeast 510 587 47,000  Level Winnipeg Center
10:03AM 50.7167 -93.6000 110° East 510 587 47,000  Level Winnipeg Center
10:04AM 50.6833 -93.4000 105° East 500 575 47,000  Level Winnipeg Center
10:05AM 50.6167 -93.2167 120° Southeast 500 575 47,000  Level Winnipeg Center
10:06AM 50.5833 -92.9833 103° East 500 575 47,000  Level Winnipeg Center
10:07AM 50.5167 -92.8000 120° Southeast 510 587 47,000  Level Winnipeg Center
10:08AM 50.4667 -92.5667 109° East 510 587 47,000  Level Winnipeg Center
10:09AM 50.4167 -92.4000 115° Southeast 500 575 47,000  Level Winnipeg Center
10:10AM 50.3667 -92.1667 108° East 500 575 47,000  Level Winnipeg Center
10:11AM 50.3000 -91.9833 120° Southeast 500 575 47,000  Level Winnipeg Center
10:12AM 50.2667 -91.7833 105° East 500 575 47,000  Level Winnipeg Center
10:13AM 50.2000 -91.5833 117° Southeast 500 575 47,000  Level Winnipeg Center
10:14AM 50.1667 -91.3667 103° East 500 575 47,000  Level Winnipeg Center
10:15AM 50.1000 -91.1667 117° Southeast 500 575 47,000  Level Winnipeg Center
10:16AM 50.0333 -90.9667 117° Southeast 500 575 47,000  Level Winnipeg Center
10:17AM 50.0000 -90.7667 104° East 500 575 47,000  Level Winnipeg Center
10:18AM 49.9333 -90.5667 117° Southeast 490 564 47,000  Level Winnipeg Center
10:19AM 49.8833 -90.3833 113° Southeast 500 575 47,000  Level Winnipeg Center
10:20AM 49.8333 -90.1833 111° Southeast 500 575 47,000  Level Winnipeg Center
10:21AM 49.7667 -90.0000 119° Southeast 500 575 47,000  Level Winnipeg Center
10:22AM 49.7167 -89.7833 110° East 500 575 47,000  Level Winnipeg Center
10:23AM 49.6500 -89.6000 119° Southeast 500 575 47,000  Level Winnipeg Center
10:24AM 49.6000 -89.4000 111° Southeast 500 575 47,000 240 Level Winnipeg Center
10:25AM 49.5500 -89.2000 111° Southeast 500 575 47,500 420 Climbing Winnipeg Center
10:26AM 49.4833 -89.0000 117° Southeast 500 575 47,900 420 Climbing Winnipeg Center
10:27AM 49.4333 -88.8000 111° Southeast 490 564 48,400 420 Climbing Winnipeg Center
10:28AM 49.3667 -88.6333 122° Southeast 490 564 48,800 300 Climbing Winnipeg Center
10:29AM 49.3167 -88.4333 111° Southeast 480 552 49,000 60 Climbing Winnipeg Center
10:30AM 49.2500 -88.2333 117° Southeast 490 564 49,000  Level Winnipeg Center
10:31AM 49.2000 -88.0667 115° Southeast 490 564 49,000  Level Winnipeg Center
10:32AM 49.1500 -87.8833 113° Southeast 480 552 49,000  Level Winnipeg Center
10:33AM 49.1000 -87.6833 111° Southeast 480 552 49,000  Level Winnipeg Center
10:34AM 49.0333 -87.5167 121° Southeast 480 552 49,000  Level Winnipeg Center
10:35AM 48.9833 -87.3167 111° Southeast 490 564 49,000  Level Winnipeg Center
10:36AM 48.9167 -87.1333 119° Southeast 490 564 49,000  Level Winnipeg Center
10:37AM 48.8500 -86.9333 117° Southeast 490 564 49,000  Level Winnipeg Center
10:38AM 48.8000 -86.7667 114° Southeast 490 564 49,000  Level Winnipeg Center
10:39AM 48.7333 -86.5833 119° Southeast 490 564 49,000  Level Winnipeg Center
10:40AM 48.6667 -86.3833 117° Southeast 490 564 49,000  Level Winnipeg Center
10:41AM 48.6000 -86.2000 119° Southeast 490 564 49,000  Level Winnipeg Center
10:42AM 48.5500 -86.0000 111° Southeast 490 564 49,000  Level Winnipeg Center
10:43AM 48.4833 -85.8500 124° Southeast 490 564 49,000  Level Winnipeg Center
10:45AM 48.3833 -85.5333 115° Southeast 500 575 49,000  Level Toronto Center
10:46AM 48.3167 -85.3500 119° Southeast 500 575 49,000  Level Toronto Center
10:47AM 48.2333 -85.1833 127° Southeast 490 564 49,000  Level Toronto Center
10:48AM 48.1667 -85.0333 124° Southeast 480 552 49,000  Level Toronto Center
10:49AM 48.0833 -84.8667 127° Southeast 480 552 49,000  Level Toronto Center
10:50AM 48.0000 -84.6833 124° Southeast 480 552 49,000  Level Toronto Center
10:51AM 47.9333 -84.5333 124° Southeast 480 552 49,000  Level Toronto Center
10:52AM 47.8500 -84.3833 130° Southeast 480 552 49,000  Level Toronto Center
10:53AM 47.7833 -84.2000 118° Southeast 480 552 49,000  Level Toronto Center
10:54AM 47.7000 -84.0333 127° Southeast 480 552 49,000  Level Toronto Center
10:55AM 47.6167 -83.8833 129° Southeast 480 552 49,000  Level Toronto Center
10:56AM 47.5500 -83.7333 123° Southeast 480 552 49,000  Level Toronto Center
10:57AM 47.4667 -83.5500 124° Southeast 480 552 49,000  Level Toronto Center
10:58AM 47.3833 -83.4000 129° Southeast 490 564 49,000  Level Toronto Center
10:59AM 47.3167 -83.2167 118° Southeast 480 552 49,000  Level Toronto Center
11:00AM 47.2333 -83.0667 129° Southeast 480 552 49,000  Level Toronto Center
11:01AM 47.1500 -82.9167 129° Southeast 480 552 49,000  Level Toronto Center
11:02AM 47.0667 -82.7667 129° Southeast 480 552 49,000  Level Toronto Center
11:03AM 47.0000 -82.5833 118° Southeast 480 552 49,000  Level Toronto Center
11:04AM 46.9167 -82.4333 129° Southeast 490 564 49,000  Level Toronto Center
11:05AM 46.8333 -82.2833 129° Southeast 490 564 49,000  Level Toronto Center
11:06AM 46.7500 -82.1167 126° Southeast 490 564 49,000  Level Toronto Center
11:07AM 46.6833 -81.9667 123° Southeast 500 575 49,000  Level Toronto Center
11:08AM 46.6000 -81.7833 123° Southeast 500 575 49,000  Level Toronto Center
11:09AM 46.5167 -81.6167 126° Southeast 490 564 49,000  Level Toronto Center
11:10AM 46.4333 -81.4667 129° Southeast 490 564 49,000  Level Toronto Center
11:11AM 46.3333 -81.3167 134° Southeast 490 564 49,000  Level Toronto Center
11:12AM 46.2500 -81.1500 126° Southeast 490 564 49,000  Level Toronto Center
11:13AM 46.1667 -81.0000 129° Southeast 490 564 49,000  Level Toronto Center
11:14AM 46.1000 -80.8500 123° Southeast 480 552 49,000  Level Toronto Center
11:15AM 46.0167 -80.6833 126° Southeast 480 552 49,000  Level Toronto Center
11:16AM 45.9500 -80.5500 126° Southeast 480 552 49,000  Level Toronto Center
11:17AM 45.8667 -80.4000 129° Southeast 470 541 49,000  Level Toronto Center
11:18AM 45.7833 -80.2500 129° Southeast 470 541 49,000  Level Toronto Center
11:19AM 45.7000 -80.1167 132° Southeast 470 541 49,000  Level Toronto Center
11:20AM 45.6167 -79.9500 126° Southeast 470 541 49,000  Level Toronto Center
11:21AM 45.5333 -79.8000 128° Southeast 470 541 49,000  Level Toronto Center
11:22AM 45.4500 -79.6500 128° Southeast 470 541 49,000  Level Toronto Center
11:23AM 45.3667 -79.5167 132° Southeast 470 541 49,000  Level Toronto Center
11:24AM 45.2833 -79.3500 125° Southeast 470 541 49,000  Level Toronto Center
11:25AM 45.2167 -79.2000 122° Southeast 480 552 49,000  Level Toronto Center
11:26AM 45.1333 -79.0667 132° Southeast 480 552 49,000  Level Toronto Center
11:27AM 45.0333 -78.9167 133° Southeast 480 552 49,000  Level Toronto Center
11:28AM 44.9667 -78.7833 125° Southeast 480 552 49,000  Level Toronto Center
11:29AM 44.8667 -78.6500 137° Southeast 480 552 49,000  Level Toronto Center
11:30AM 44.7833 -78.5000 128° Southeast 480 552 49,000  Level Toronto Center
11:31AM 44.6833 -78.3500 133° Southeast 490 564 49,000  Level Toronto Center
11:32AM 44.6000 -78.2000 128° Southeast 480 552 49,000  Level Toronto Center
11:33AM 44.5167 -78.0667 131° Southeast 480 552 49,000  Level Toronto Center
11:34AM 44.4167 -77.9333 136° Southeast 480 552 49,000  Level Toronto Center
11:35AM 44.3333 -77.7833 128° Southeast 470 541 49,000 -420 Level Toronto Center
11:36AM 44.2667 -77.6500 125° Southeast 490 564 48,200 -1,500 Descending Toronto Center
11:37AM 44.1667 -77.5000 133° Southeast 500 575 46,100 -2,280 Descending Toronto Center
11:38AM 44.0667 -77.3500 133° Southeast 500 575 43,700 -2,640 Descending Toronto Center
11:39AM 43.9667 -77.2000 133° Southeast 500 575 40,900 -2,820 Descending Toronto Center
11:40AM 43.8833 -77.0667 131° Southeast 500 575 38,100 -2,820 Descending Toronto Center
11:41AM 43.8000 -76.9333 131° Southeast 500 575 35,300 -2,580 Descending Toronto Center
11:42AM 43.7000 -76.7667 130° Southeast 510 587 33,000 -1,200 Descending Toronto Center
11:43AM 43.6000 -76.6333 136° Southeast 500 575 33,000 -120 Level Toronto Center
11:44AM 43.5019 -76.4881 133° Southeast 493 567 32,800 -540 Descending Boston Center
11:45AM 43.4089 -76.3475 132° Southeast 493 567 31,900 -960 Descending Boston Center
11:46AM 43.3158 -76.2044 132° Southeast 488 562 30,900 -900 Descending Boston Center
11:47AM 43.2203 -76.0617 133° Southeast 494 568 29,900 -1,020 Descending Boston Center
11:48AM 43.1069 -75.8900 132° Southeast 499 574 28,700 -1,020 Descending Boston Center
11:49AM 43.0089 -75.7511 134° Southeast 504 580 28,000 -360 Descending Boston Center
11:50AM 42.9147 -75.6128 133° Southeast 504 580 28,000 -540 Level Boston Center
11:51AM 42.8206 -75.4719 132° Southeast 504 580 27,000 -1,200 Descending Boston Center
11:52AM 42.7219 -75.3428 136° Southeast 499 574 25,600 -1,440 Descending Boston Center
11:53AM 42.6289 -75.2197 136° Southeast 493 567 24,200 -1,440 Descending Boston Center
11:54AM 42.5342 -75.0944 136° Southeast 482 555 22,800 -1,440 Descending Boston Center
11:55AM 42.4428 -74.9781 137° Southeast 471 542 21,400 -1,380 Descending Boston Center
11:56AM 42.3536 -74.8619 136° Southeast 459 528 20,100 -1,380 Descending Boston Center
11:57AM 42.2644 -74.7492 137° Southeast 454 522 18,700 -960 Descending Boston Center
11:59AM 42.1789 -74.6394 136° Southeast 432 497 18,100 -600 Descending Boston Center
12:00PM 42.0794 -74.5017 134° Southeast 427 491 17,500 -2,040 Descending Boston Center
12:01PM 42.0083 -74.4044 135° Southeast 421 484 14,100 -3,300 Descending Boston Center
12:02PM 41.9247 -74.2872 134° Southeast 401 461 11,000 -1,620 Descending Boston Center
12:03PM 41.8594 -74.1961 134° Southeast 390 449 11,000 -780 Level Boston Center
12:08PM 41.4833 -73.8939 134° Southeast 270 311 5,800 -1,020 Descending FlightAware ADS-B (KSNC)
12:11PM 41.2587 -73.7214 150° Southeast 245 282 2,700 -720 Descending FlightAware ADS-B
12:13PM 41.1833 -73.6500 150° Southeast 250 288 3,000 120 Climbing New York TRACON
12:14PM 41.1333 -73.6000 143° Southeast 207 238 3,000  Level New York TRACON
12:15PM 41.0833 -73.5833 166° South 190 219 3,000  Level New York TRACON
12:16PM 41.0333 -73.5667 166° South 190 219 3,000 -480 Level New York TRACON
12:17PM 40.9833 -73.5833 194° South 204 235 2,000 -480 Descending New York TRACON
12:18PM 40.9833 -73.6500 270° West 173 199 2,000 -300 Level New York TRACON
12:19PM 41.0167 -73.6667 339° North 140 161 1,400 -660 Descending New York TRACON
12:20PM 41.0500 -73.7000 323° Northwest 122 140 700 -720 Descending New York TRACON